sensor_id;sensor_type;location;lat;lon;timestamp;pressure;altitude;pressure_sealevel;temperature;humidity
48968;BME280;46511;53.148;8.204;2023-06-14T00:00:15;101779.72;;;16.11;100.00
48968;BME280;46511;53.148;8.204;2023-06-14T00:02:47;101780.56;;;16.12;100.00
48968;BME280;46511;53.148;8.204;2023-06-14T00:05:18;101789.28;;;16.01;100.00
48968;BME280;46511;53.148;8.204;2023-06-14T00:07:50;101783.63;;;15.91;100.00
48968;BME280;46511;53.148;8.204;2023-06-14T00:10:24;101788.13;;;15.91;100.00
48968;BME280;46511;53.148;8.204;2023-06-14T00:12:55;101787.47;;;15.87;100.00
48968;BME280;46511;53.148;8.204;2023-06-14T00:15:27;101783.84;;;15.88;100.00
48968;BME280;46511;53.148;8.204;2023-06-14T00:17:59;101793.31;;;15.80;100.00
48968;BME280;46511;53.148;8.204;2023-06-14T00:20:32;101789.31;;;15.87;100.00
48968;BME280;46511;53.148;8.204;2023-06-14T00:23:04;101789.56;;;15.82;100.00
48968;BME280;46511;53.148;8.204;2023-06-14T00:25:36;101788.91;;;15.79;100.00
48968;BME280;46511;53.148;8.204;2023-06-14T00:28:07;101792.56;;;15.78;100.00
48968;BME280;46511;53.148;8.204;2023-06-14T00:30:38;101792.75;;;15.75;100.00
48968;BME280;46511;53.148;8.204;2023-06-14T00:33:10;101791.78;;;15.76;100.00
48968;BME280;46511;53.148;8.204;2023-06-14T00:35:41;101797.63;;;15.68;100.00
48968;BME280;46511;53.148;8.204;2023-06-14T00:38:13;101795.25;;;15.63;100.00
48968;BME280;46511;53.148;8.204;2023-06-14T00:40:44;101802.84;;;15.55;100.00
48968;BME280;46511;53.148;8.204;2023-06-14T00:43:15;101793.84;;;15.56;100.00
48968;BME280;46511;53.148;8.204;2023-06-14T00:45:46;101805.78;;;15.51;100.00
48968;BME280;46511;53.148;8.204;2023-06-14T00:48:20;101798.31;;;15.41;100.00
48968;BME280;46511;53.148;8.204;2023-06-14T00:50:53;101798.41;;;15.40;100.00
48968;BME280;46511;53.148;8.204;2023-06-14T00:53:25;101803.97;;;15.37;100.00
48968;BME280;46511;53.148;8.204;2023-06-14T00:55:56;101794.38;;;15.33;100.00
48968;BME280;46511;53.148;8.204;2023-06-14T00:58:28;101798.00;;;15.32;100.00
48968;BME280;46511;53.148;8.204;2023-06-14T01:00:59;101803.75;;;15.26;100.00
48968;BME280;46511;53.148;8.204;2023-06-14T01:03:31;101801.25;;;15.23;100.00
48968;BME280;46511;53.148;8.204;2023-06-14T01:06:33;101795.72;;;15.26;100.00
48968;BME280;46511;53.148;8.204;2023-06-14T01:09:27;101802.50;;;15.17;100.00
48968;BME280;46511;53.148;8.204;2023-06-14T01:12:35;101799.22;;;15.12;100.00
48968;BME280;46511;53.148;8.204;2023-06-14T01:15:14;101800.38;;;15.08;100.00
48968;BME280;46511;53.148;8.204;2023-06-14T01:17:47;101804.06;;;15.05;100.00
48968;BME280;46511;53.148;8.204;2023-06-14T01:20:22;101806.47;;;15.10;100.00
48968;BME280;46511;53.148;8.204;2023-06-14T01:22:59;101805.22;;;15.01;100.00
48968;BME280;46511;53.148;8.204;2023-06-14T01:25:31;101803.59;;;14.99;100.00
48968;BME280;46511;53.148;8.204;2023-06-14T01:28:03;101811.88;;;14.94;100.00
48968;BME280;46511;53.148;8.204;2023-06-14T01:30:42;101807.13;;;14.99;100.00
48968;BME280;46511;53.148;8.204;2023-06-14T01:33:18;101809.19;;;14.94;100.00
48968;BME280;46511;53.148;8.204;2023-06-14T01:35:51;101796.66;;;14.95;100.00
48968;BME280;46511;53.148;8.204;2023-06-14T01:38:24;101806.88;;;14.88;100.00
48968;BME280;46511;53.148;8.204;2023-06-14T01:40:57;101803.06;;;14.92;100.00
48968;BME280;46511;53.148;8.204;2023-06-14T01:43:30;101816.53;;;14.91;100.00
48968;BME280;46511;53.148;8.204;2023-06-14T01:46:02;101812.41;;;14.85;100.00
48968;BME280;46511;53.148;8.204;2023-06-14T01:48:34;101808.97;;;14.83;100.00
48968;BME280;46511;53.148;8.204;2023-06-14T01:51:05;101816.22;;;14.81;100.00
48968;BME280;46511;53.148;8.204;2023-06-14T01:53:37;101815.06;;;14.85;100.00
48968;BME280;46511;53.148;8.204;2023-06-14T01:56:08;101815.25;;;14.82;100.00
48968;BME280;46511;53.148;8.204;2023-06-14T01:58:39;101819.13;;;14.76;100.00
48968;BME280;46511;53.148;8.204;2023-06-14T02:01:11;101820.28;;;14.72;100.00
48968;BME280;46511;53.148;8.204;2023-06-14T02:03:43;101823.16;;;14.69;100.00
48968;BME280;46511;53.148;8.204;2023-06-14T02:06:15;101823.19;;;14.68;100.00
48968;BME280;46511;53.148;8.204;2023-06-14T02:08:47;101813.66;;;14.64;100.00
48968;BME280;46511;53.148;8.204;2023-06-14T02:11:18;101817.63;;;14.56;100.00
48968;BME280;46511;53.148;8.204;2023-06-14T02:13:49;101820.91;;;14.62;100.00
48968;BME280;46511;53.148;8.204;2023-06-14T02:16:21;101819.34;;;14.57;100.00
48968;BME280;46511;53.148;8.204;2023-06-14T02:18:53;101824.53;;;14.61;100.00
48968;BME280;46511;53.148;8.204;2023-06-14T02:21:24;101826.00;;;14.50;100.00
48968;BME280;46511;53.148;8.204;2023-06-14T02:23:56;101826.59;;;14.55;100.00
48968;BME280;46511;53.148;8.204;2023-06-14T02:26:27;101827.63;;;14.53;100.00
48968;BME280;46511;53.148;8.204;2023-06-14T02:29:00;101828.69;;;14.50;100.00
48968;BME280;46511;53.148;8.204;2023-06-14T02:31:26;101831.50;;;14.47;100.00
48968;BME280;46511;53.148;8.204;2023-06-14T02:33:58;101832.44;;;14.46;100.00
48968;BME280;46511;53.148;8.204;2023-06-14T02:36:29;101833.66;;;14.41;100.00
48968;BME280;46511;53.148;8.204;2023-06-14T02:38:56;101837.94;;;14.43;100.00
48968;BME280;46511;53.148;8.204;2023-06-14T02:41:30;101833.78;;;14.38;100.00
48968;BME280;46511;53.148;8.204;2023-06-14T02:44:02;101838.28;;;14.37;100.00
48968;BME280;46511;53.148;8.204;2023-06-14T02:46:33;101833.03;;;14.36;100.00
48968;BME280;46511;53.148;8.204;2023-06-14T02:49:05;101837.69;;;14.32;100.00
48968;BME280;46511;53.148;8.204;2023-06-14T02:51:36;101840.50;;;14.29;100.00
48968;BME280;46511;53.148;8.204;2023-06-14T02:54:07;101841.22;;;14.33;100.00
48968;BME280;46511;53.148;8.204;2023-06-14T02:56:39;101839.56;;;14.30;100.00
48968;BME280;46511;53.148;8.204;2023-06-14T02:59:08;101847.00;;;14.25;100.00
48968;BME280;46511;53.148;8.204;2023-06-14T03:01:40;101853.28;;;14.24;100.00
48968;BME280;46511;53.148;8.204;2023-06-14T03:04:12;101857.50;;;14.28;100.00
48968;BME280;46511;53.148;8.204;2023-06-14T03:06:43;101849.66;;;14.25;100.00
48968;BME280;46511;53.148;8.204;2023-06-14T03:09:15;101861.75;;;14.32;100.00
48968;BME280;46511;53.148;8.204;2023-06-14T03:11:47;101866.91;;;14.35;100.00
48968;BME280;46511;53.148;8.204;2023-06-14T03:14:18;101866.72;;;14.38;100.00
48968;BME280;46511;53.148;8.204;2023-06-14T03:16:50;101870.22;;;14.40;100.00
48968;BME280;46511;53.148;8.204;2023-06-14T03:19:21;101869.25;;;14.41;100.00
48968;BME280;46511;53.148;8.204;2023-06-14T03:21:52;101881.06;;;14.37;100.00
48968;BME280;46511;53.148;8.204;2023-06-14T03:24:24;101876.31;;;14.42;100.00
48968;BME280;46511;53.148;8.204;2023-06-14T03:26:58;101879.72;;;14.46;100.00
48968;BME280;46511;53.148;8.204;2023-06-14T03:29:29;101879.63;;;14.47;100.00
48968;BME280;46511;53.148;8.204;2023-06-14T03:32:02;101878.66;;;14.48;100.00
48968;BME280;46511;53.148;8.204;2023-06-14T03:34:34;101890.94;;;14.52;100.00
48968;BME280;46511;53.148;8.204;2023-06-14T03:37:05;101886.69;;;14.48;100.00
48968;BME280;46511;53.148;8.204;2023-06-14T03:39:37;101889.81;;;14.56;100.00
48968;BME280;46511;53.148;8.204;2023-06-14T03:42:08;101891.38;;;14.61;100.00
48968;BME280;46511;53.148;8.204;2023-06-14T03:44:40;101892.50;;;14.72;100.00
48968;BME280;46511;53.148;8.204;2023-06-14T03:47:06;101891.81;;;14.69;100.00
48968;BME280;46511;53.148;8.204;2023-06-14T03:49:37;101888.25;;;14.68;100.00
48968;BME280;46511;53.148;8.204;2023-06-14T03:52:09;101894.13;;;14.75;100.00
48968;BME280;46511;53.148;8.204;2023-06-14T03:54:40;101896.63;;;14.78;100.00
48968;BME280;46511;53.148;8.204;2023-06-14T03:57:11;101901.28;;;14.90;100.00
48968;BME280;46511;53.148;8.204;2023-06-14T03:59:43;101896.44;;;14.97;100.00
48968;BME280;46511;53.148;8.204;2023-06-14T04:02:14;101904.47;;;14.97;100.00
48968;BME280;46511;53.148;8.204;2023-06-14T04:04:49;101901.09;;;15.09;100.00
48968;BME280;46511;53.148;8.204;2023-06-14T04:07:20;101903.34;;;15.17;100.00
48968;BME280;46511;53.148;8.204;2023-06-14T04:09:51;101905.06;;;15.18;100.00
48968;BME280;46511;53.148;8.204;2023-06-14T04:12:23;101907.97;;;15.29;100.00
48968;BME280;46511;53.148;8.204;2023-06-14T04:14:54;101907.59;;;15.35;100.00
48968;BME280;46511;53.148;8.204;2023-06-14T04:17:26;101919.13;;;15.51;100.00
48968;BME280;46511;53.148;8.204;2023-06-14T04:19:58;101911.84;;;15.53;100.00
48968;BME280;46511;53.148;8.204;2023-06-14T04:22:30;101904.78;;;15.52;100.00
48968;BME280;46511;53.148;8.204;2023-06-14T04:25:02;101912.72;;;15.69;100.00
48968;BME280;46511;53.148;8.204;2023-06-14T04:27:34;101909.28;;;15.67;100.00
48968;BME280;46511;53.148;8.204;2023-06-14T04:30:07;101926.22;;;15.52;100.00
48968;BME280;46511;53.148;8.204;2023-06-14T04:32:39;101922.50;;;15.99;100.00
48968;BME280;46511;53.148;8.204;2023-06-14T04:35:08;101927.31;;;15.94;100.00
48968;BME280;46511;53.148;8.204;2023-06-14T04:37:39;101923.50;;;16.12;100.00
48968;BME280;46511;53.148;8.204;2023-06-14T04:40:14;101922.81;;;16.09;100.00
48968;BME280;46511;53.148;8.204;2023-06-14T04:42:45;101925.63;;;16.21;100.00
48968;BME280;46511;53.148;8.204;2023-06-14T04:45:17;101920.72;;;16.28;100.00
48968;BME280;46511;53.148;8.204;2023-06-14T04:47:48;101921.75;;;16.54;100.00
48968;BME280;46511;53.148;8.204;2023-06-14T04:50:20;101922.81;;;16.51;100.00
48968;BME280;46511;53.148;8.204;2023-06-14T04:52:52;101919.75;;;16.43;100.00
48968;BME280;46511;53.148;8.204;2023-06-14T04:55:19;101925.22;;;16.70;100.00
48968;BME280;46511;53.148;8.204;2023-06-14T04:57:51;101933.44;;;16.39;100.00
48968;BME280;46511;53.148;8.204;2023-06-14T05:00:24;101926.53;;;16.63;100.00
48968;BME280;46511;53.148;8.204;2023-06-14T05:02:55;101935.94;;;16.42;100.00
48968;BME280;46511;53.148;8.204;2023-06-14T05:05:27;101940.53;;;16.82;100.00
48968;BME280;46511;53.148;8.204;2023-06-14T05:07:59;101940.84;;;16.78;100.00
48968;BME280;46511;53.148;8.204;2023-06-14T05:10:30;101937.47;;;16.89;100.00
48968;BME280;46511;53.148;8.204;2023-06-14T05:13:02;101940.25;;;16.87;100.00
48968;BME280;46511;53.148;8.204;2023-06-14T05:15:34;101935.69;;;17.29;100.00
48968;BME280;46511;53.148;8.204;2023-06-14T05:18:05;101935.25;;;16.67;100.00
48968;BME280;46511;53.148;8.204;2023-06-14T05:20:39;101940.94;;;17.03;100.00
48968;BME280;46511;53.148;8.204;2023-06-14T05:23:08;101932.50;;;17.36;100.00
48968;BME280;46511;53.148;8.204;2023-06-14T05:25:45;101939.63;;;17.50;100.00
48968;BME280;46511;53.148;8.204;2023-06-14T05:28:17;101938.03;;;17.21;100.00
48968;BME280;46511;53.148;8.204;2023-06-14T05:30:43;101935.44;;;17.59;100.00
48968;BME280;46511;53.148;8.204;2023-06-14T05:33:15;101940.34;;;17.79;100.00
48968;BME280;46511;53.148;8.204;2023-06-14T05:35:46;101938.41;;;17.81;100.00
48968;BME280;46511;53.148;8.204;2023-06-14T05:38:17;101945.66;;;17.93;100.00
48968;BME280;46511;53.148;8.204;2023-06-14T05:40:49;101945.44;;;17.57;100.00
48968;BME280;46511;53.148;8.204;2023-06-14T05:43:20;101947.47;;;18.18;100.00
48968;BME280;46511;53.148;8.204;2023-06-14T05:45:51;101952.84;;;18.18;100.00
48968;BME280;46511;53.148;8.204;2023-06-14T05:48:23;101949.84;;;18.48;100.00
48968;BME280;46511;53.148;8.204;2023-06-14T05:50:54;101952.00;;;18.43;100.00
48968;BME280;46511;53.148;8.204;2023-06-14T05:53:25;101954.69;;;18.69;100.00
48968;BME280;46511;53.148;8.204;2023-06-14T05:55:57;101955.09;;;18.63;100.00
48968;BME280;46511;53.148;8.204;2023-06-14T05:58:28;101955.19;;;18.87;100.00
48968;BME280;46511;53.148;8.204;2023-06-14T06:00:59;101954.56;;;18.58;100.00
48968;BME280;46511;53.148;8.204;2023-06-14T06:03:32;101957.16;;;18.46;100.00
48968;BME280;46511;53.148;8.204;2023-06-14T06:06:03;101957.06;;;18.35;100.00
48968;BME280;46511;53.148;8.204;2023-06-14T06:08:34;101967.38;;;18.79;100.00
48968;BME280;46511;53.148;8.204;2023-06-14T06:11:06;101965.97;;;18.74;100.00
48968;BME280;46511;53.148;8.204;2023-06-14T06:13:37;101968.19;;;18.93;100.00
48968;BME280;46511;53.148;8.204;2023-06-14T06:16:10;101967.66;;;19.24;100.00
48968;BME280;46511;53.148;8.204;2023-06-14T06:18:41;101965.50;;;19.40;100.00
48968;BME280;46511;53.148;8.204;2023-06-14T06:21:12;101977.84;;;19.32;100.00
48968;BME280;46511;53.148;8.204;2023-06-14T06:23:44;101979.78;;;19.30;100.00
48968;BME280;46511;53.148;8.204;2023-06-14T06:26:15;101977.63;;;19.35;100.00
48968;BME280;46511;53.148;8.204;2023-06-14T06:28:46;101966.44;;;19.28;100.00
48968;BME280;46511;53.148;8.204;2023-06-14T06:31:18;101963.66;;;20.58;100.00
48968;BME280;46511;53.148;8.204;2023-06-14T06:33:49;101963.59;;;22.40;91.27
48968;BME280;46511;53.148;8.204;2023-06-14T06:36:21;101965.25;;;24.28;74.05
48968;BME280;46511;53.148;8.204;2023-06-14T06:38:53;101960.25;;;25.61;66.75
48968;BME280;46511;53.148;8.204;2023-06-14T06:41:21;101964.91;;;25.33;60.85
48968;BME280;46511;53.148;8.204;2023-06-14T06:43:53;101966.97;;;26.70;55.68
48968;BME280;46511;53.148;8.204;2023-06-14T06:46:24;101972.97;;;24.33;58.42
48968;BME280;46511;53.148;8.204;2023-06-14T06:48:55;101975.94;;;24.49;57.46
48968;BME280;46511;53.148;8.204;2023-06-14T06:51:27;101977.84;;;24.76;55.34
48968;BME280;46511;53.148;8.204;2023-06-14T06:53:58;101977.47;;;25.16;52.68
48968;BME280;46511;53.148;8.204;2023-06-14T06:56:29;101982.53;;;25.29;52.96
48968;BME280;46511;53.148;8.204;2023-06-14T06:59:02;101987.75;;;25.94;48.24
48968;BME280;46511;53.148;8.204;2023-06-14T07:01:33;101980.69;;;26.53;47.44
48968;BME280;46511;53.148;8.204;2023-06-14T07:04:07;101984.28;;;26.27;48.34
48968;BME280;46511;53.148;8.204;2023-06-14T07:06:38;101980.38;;;28.13;44.37
48968;BME280;46511;53.148;8.204;2023-06-14T07:09:10;101984.56;;;26.76;46.83
48968;BME280;46511;53.148;8.204;2023-06-14T07:11:46;101992.63;;;27.44;45.54
48968;BME280;46511;53.148;8.204;2023-06-14T07:14:18;101982.97;;;28.15;43.15
48968;BME280;46511;53.148;8.204;2023-06-14T07:16:49;101983.16;;;28.05;43.15
48968;BME280;46511;53.148;8.204;2023-06-14T07:19:21;101982.94;;;26.99;43.53
48968;BME280;46511;53.148;8.204;2023-06-14T07:21:47;101984.13;;;29.23;42.86
48968;BME280;46511;53.148;8.204;2023-06-14T07:24:19;101983.09;;;29.93;40.30
48968;BME280;46511;53.148;8.204;2023-06-14T07:26:52;101975.97;;;30.74;38.42
48968;BME280;46511;53.148;8.204;2023-06-14T07:29:23;101974.88;;;31.62;37.24
48968;BME280;46511;53.148;8.204;2023-06-14T07:31:54;101975.97;;;31.25;35.69
48968;BME280;46511;53.148;8.204;2023-06-14T07:34:26;101979.59;;;30.07;37.09
48968;BME280;46511;53.148;8.204;2023-06-14T07:37:00;101973.06;;;28.78;38.55
48968;BME280;46511;53.148;8.204;2023-06-14T07:39:31;101971.88;;;29.65;37.48
48968;BME280;46511;53.148;8.204;2023-06-14T07:42:02;101973.09;;;31.54;34.97
48968;BME280;46511;53.148;8.204;2023-06-14T07:44:34;101968.09;;;33.18;32.80
48968;BME280;46511;53.148;8.204;2023-06-14T07:47:05;101968.91;;;35.60;29.00
48968;BME280;46511;53.148;8.204;2023-06-14T07:49:37;101963.50;;;34.51;29.83
48968;BME280;46511;53.148;8.204;2023-06-14T07:52:08;101972.63;;;33.52;29.55
48968;BME280;46511;53.148;8.204;2023-06-14T07:54:40;101962.25;;;32.17;31.80
48968;BME280;46511;53.148;8.204;2023-06-14T07:57:12;101967.75;;;31.89;32.83
48968;BME280;46511;53.148;8.204;2023-06-14T07:59:43;101966.53;;;32.89;31.12
48968;BME280;46511;53.148;8.204;2023-06-14T08:02:14;101956.88;;;36.04;27.63
48968;BME280;46511;53.148;8.204;2023-06-14T08:04:46;101966.28;;;32.49;30.82
48968;BME280;46511;53.148;8.204;2023-06-14T08:07:19;101975.59;;;32.48;30.68
48968;BME280;46511;53.148;8.204;2023-06-14T08:09:51;101973.41;;;31.23;32.83
48968;BME280;46511;53.148;8.204;2023-06-14T08:12:17;101973.41;;;32.37;30.75
48968;BME280;46511;53.148;8.204;2023-06-14T08:14:48;101970.66;;;36.11;27.14
48968;BME280;46511;53.148;8.204;2023-06-14T08:17:19;101969.41;;;36.50;27.28
48968;BME280;46511;53.148;8.204;2023-06-14T08:19:51;101974.97;;;33.81;27.23
48968;BME280;46511;53.148;8.204;2023-06-14T08:22:22;101976.56;;;32.34;29.51
48968;BME280;46511;53.148;8.204;2023-06-14T08:24:55;101975.16;;;32.45;29.80
48968;BME280;46511;53.148;8.204;2023-06-14T08:27:21;101978.81;;;33.67;28.24
48968;BME280;46511;53.148;8.204;2023-06-14T08:29:53;101963.78;;;34.03;27.76
48968;BME280;46511;53.148;8.204;2023-06-14T08:32:25;101963.44;;;34.64;27.27
48968;BME280;46511;53.148;8.204;2023-06-14T08:34:56;101971.09;;;32.40;27.86
48968;BME280;46511;53.148;8.204;2023-06-14T08:37:27;101963.50;;;32.15;29.20
48968;BME280;46511;53.148;8.204;2023-06-14T08:40:00;101964.56;;;33.44;28.08
48968;BME280;46511;53.148;8.204;2023-06-14T08:42:32;101963.38;;;32.29;28.76
48968;BME280;46511;53.148;8.204;2023-06-14T08:45:04;101968.63;;;30.22;30.24
48968;BME280;46511;53.148;8.204;2023-06-14T08:47:36;101966.59;;;30.83;30.24
48968;BME280;46511;53.148;8.204;2023-06-14T08:50:08;101969.38;;;31.83;28.63
48968;BME280;46511;53.148;8.204;2023-06-14T08:52:40;101960.41;;;31.32;29.21
48968;BME280;46511;53.148;8.204;2023-06-14T08:55:16;101960.41;;;33.00;28.95
48968;BME280;46511;53.148;8.204;2023-06-14T08:57:48;101963.09;;;32.18;28.50
48968;BME280;46511;53.148;8.204;2023-06-14T09:00:21;101961.13;;;32.11;29.66
48968;BME280;46511;53.148;8.204;2023-06-14T09:02:53;101969.13;;;32.62;28.78
48968;BME280;46511;53.148;8.204;2023-06-14T09:05:34;101970.66;;;33.33;27.57
48968;BME280;46511;53.148;8.204;2023-06-14T09:08:06;101971.78;;;34.44;27.28
48968;BME280;46511;53.148;8.204;2023-06-14T09:10:37;101962.25;;;34.20;26.55
48968;BME280;46511;53.148;8.204;2023-06-14T09:13:11;101966.28;;;36.22;24.32
48968;BME280;46511;53.148;8.204;2023-06-14T09:15:43;101977.56;;;31.98;27.20
48968;BME280;46511;53.148;8.204;2023-06-14T09:18:14;101982.06;;;33.10;26.59
48968;BME280;46511;53.148;8.204;2023-06-14T09:20:46;101978.31;;;32.42;27.15
48968;BME280;46511;53.148;8.204;2023-06-14T09:23:21;101966.81;;;33.20;26.37
48968;BME280;46511;53.148;8.204;2023-06-14T09:25:53;101972.31;;;33.07;27.03
48968;BME280;46511;53.148;8.204;2023-06-14T09:28:28;101969.03;;;33.38;27.78
48968;BME280;46511;53.148;8.204;2023-06-14T09:31:00;101980.59;;;33.20;27.43
48968;BME280;46511;53.148;8.204;2023-06-14T09:33:32;101968.44;;;32.95;27.00
48968;BME280;46511;53.148;8.204;2023-06-14T09:36:04;101978.66;;;33.14;27.17
48968;BME280;46511;53.148;8.204;2023-06-14T09:38:40;101971.38;;;32.87;27.16
48968;BME280;46511;53.148;8.204;2023-06-14T09:41:12;101984.28;;;33.54;27.50
48968;BME280;46511;53.148;8.204;2023-06-14T09:43:43;101972.25;;;34.08;26.54
48968;BME280;46511;53.148;8.204;2023-06-14T09:46:16;101976.47;;;33.58;26.69
48968;BME280;46511;53.148;8.204;2023-06-14T09:48:49;101975.44;;;33.92;25.61
48968;BME280;46511;53.148;8.204;2023-06-14T09:51:21;101966.00;;;33.27;26.40
48968;BME280;46511;53.148;8.204;2023-06-14T09:53:55;101970.66;;;33.19;26.80
48968;BME280;46511;53.148;8.204;2023-06-14T09:56:34;101970.78;;;34.05;25.86
48968;BME280;46511;53.148;8.204;2023-06-14T09:59:09;101975.38;;;33.39;26.44
48968;BME280;46511;53.148;8.204;2023-06-14T10:01:43;101963.03;;;35.50;24.78
48968;BME280;46511;53.148;8.204;2023-06-14T10:04:16;101970.16;;;36.94;23.34
48968;BME280;46511;53.148;8.204;2023-06-14T10:06:52;101971.53;;;36.05;24.18
48968;BME280;46511;53.148;8.204;2023-06-14T10:09:25;101974.88;;;36.14;22.99
48968;BME280;46511;53.148;8.204;2023-06-14T10:11:57;101973.88;;;35.13;23.99
48968;BME280;46511;53.148;8.204;2023-06-14T10:14:28;101970.94;;;32.83;26.68
48968;BME280;46511;53.148;8.204;2023-06-14T10:17:09;101960.22;;;34.74;24.95
48968;BME280;46511;53.148;8.204;2023-06-14T10:19:48;101962.84;;;32.82;26.62
48968;BME280;46511;53.148;8.204;2023-06-14T10:22:35;101957.94;;;34.64;25.35
48968;BME280;46511;53.148;8.204;2023-06-14T10:25:13;101960.63;;;35.92;23.95
48968;BME280;46511;53.148;8.204;2023-06-14T10:30:35;101967.72;;;35.11;24.07
48968;BME280;46511;53.148;8.204;2023-06-14T10:33:06;101962.78;;;36.88;23.61
48968;BME280;46511;53.148;8.204;2023-06-14T10:35:38;101956.53;;;37.23;22.04
48968;BME280;46511;53.148;8.204;2023-06-14T10:38:11;101953.59;;;38.48;21.93
48968;BME280;46511;53.148;8.204;2023-06-14T10:40:43;101963.31;;;37.68;21.64
48968;BME280;46511;53.148;8.204;2023-06-14T10:43:25;101966.16;;;34.77;24.83
48968;BME280;46511;53.148;8.204;2023-06-14T10:48:57;101952.34;;;34.90;24.07
48968;BME280;46511;53.148;8.204;2023-06-14T10:51:30;101962.63;;;33.31;25.79
48968;BME280;46511;53.148;8.204;2023-06-14T10:54:16;101948.06;;;35.89;25.04
48968;BME280;46511;53.148;8.204;2023-06-14T10:56:48;101943.34;;;36.40;23.95
48968;BME280;46511;53.148;8.204;2023-06-14T10:59:21;101946.94;;;34.51;24.56
48968;BME280;46511;53.148;8.204;2023-06-14T11:01:57;101952.22;;;35.10;24.13
48968;BME280;46511;53.148;8.204;2023-06-14T11:04:50;101941.63;;;34.56;24.64
48968;BME280;46511;53.148;8.204;2023-06-14T11:10:10;101938.19;;;36.43;22.95
48968;BME280;46511;53.148;8.204;2023-06-14T11:13:09;101932.22;;;36.21;23.18
48968;BME280;46511;53.148;8.204;2023-06-14T11:15:43;101923.84;;;35.28;24.35
48968;BME280;46511;53.148;8.204;2023-06-14T11:18:16;101935.69;;;34.59;24.30
48968;BME280;46511;53.148;8.204;2023-06-14T11:20:47;101923.78;;;35.41;23.81
48968;BME280;46511;53.148;8.204;2023-06-14T11:23:19;101918.63;;;36.56;23.37
48968;BME280;46511;53.148;8.204;2023-06-14T11:25:52;101918.56;;;36.45;22.62
48968;BME280;46511;53.148;8.204;2023-06-14T11:28:23;101919.56;;;36.87;22.94
48968;BME280;46511;53.148;8.204;2023-06-14T11:31:01;101912.53;;;35.36;24.10
48968;BME280;46511;53.148;8.204;2023-06-14T11:33:34;101911.03;;;35.09;24.20
48968;BME280;46511;53.148;8.204;2023-06-14T11:36:06;101913.38;;;32.95;26.68
48968;BME280;46511;53.148;8.204;2023-06-14T11:38:39;101921.25;;;32.57;26.45
48968;BME280;46511;53.148;8.204;2023-06-14T11:41:10;101912.31;;;35.06;23.97
48968;BME280;46511;53.148;8.204;2023-06-14T11:43:42;101904.56;;;37.06;21.92
48968;BME280;46511;53.148;8.204;2023-06-14T11:46:13;101896.44;;;34.50;23.93
48968;BME280;46511;53.148;8.204;2023-06-14T11:48:48;101906.25;;;36.22;22.47
48968;BME280;46511;53.148;8.204;2023-06-14T11:51:20;101909.50;;;32.83;26.09
48968;BME280;46511;53.148;8.204;2023-06-14T11:53:51;101902.81;;;32.99;25.82
48968;BME280;46511;53.148;8.204;2023-06-14T11:56:23;101901.69;;;35.03;24.61
48968;BME280;46511;53.148;8.204;2023-06-14T11:58:55;101905.28;;;31.27;27.45
48968;BME280;46511;53.148;8.204;2023-06-14T12:01:29;101904.81;;;32.77;25.87
48968;BME280;46511;53.148;8.204;2023-06-14T12:04:02;101907.38;;;32.02;26.50
48968;BME280;46511;53.148;8.204;2023-06-14T12:06:34;101906.75;;;30.93;28.39
48968;BME280;46511;53.148;8.204;2023-06-14T12:09:10;101892.88;;;33.04;25.84
48968;BME280;46511;53.148;8.204;2023-06-14T12:11:44;101887.66;;;33.62;25.81
48968;BME280;46511;53.148;8.204;2023-06-14T12:14:16;101890.09;;;35.76;24.06
48968;BME280;46511;53.148;8.204;2023-06-14T12:16:47;101896.25;;;35.78;22.87
48968;BME280;46511;53.148;8.204;2023-06-14T12:19:14;101885.63;;;35.57;23.13
48968;BME280;46511;53.148;8.204;2023-06-14T12:21:48;101882.53;;;34.70;23.47
48968;BME280;46511;53.148;8.204;2023-06-14T12:24:20;101884.31;;;37.36;20.97
48968;BME280;46511;53.148;8.204;2023-06-14T12:26:51;101883.94;;;37.32;21.00
48968;BME280;46511;53.148;8.204;2023-06-14T12:29:24;101891.75;;;36.45;21.90
48968;BME280;46511;53.148;8.204;2023-06-14T12:31:55;101880.13;;;36.37;23.13
48968;BME280;46511;53.148;8.204;2023-06-14T12:34:28;101888.66;;;37.02;22.14
48968;BME280;46511;53.148;8.204;2023-06-14T12:36:59;101877.53;;;38.49;20.41
48968;BME280;46511;53.148;8.204;2023-06-14T12:39:31;101873.47;;;37.69;21.15
48968;BME280;46511;53.148;8.204;2023-06-14T12:42:05;101874.44;;;34.17;23.74
48968;BME280;46511;53.148;8.204;2023-06-14T12:44:32;101880.41;;;34.01;23.92
48968;BME280;46511;53.148;8.204;2023-06-14T12:47:07;101873.94;;;35.23;22.86
48968;BME280;46511;53.148;8.204;2023-06-14T12:49:38;101878.06;;;35.45;23.80
48968;BME280;46511;53.148;8.204;2023-06-14T12:52:10;101882.16;;;33.56;24.90
48968;BME280;46511;53.148;8.204;2023-06-14T12:54:41;101886.81;;;33.75;24.46
48968;BME280;46511;53.148;8.204;2023-06-14T12:57:12;101877.03;;;33.79;24.31
48968;BME280;46511;53.148;8.204;2023-06-14T12:59:44;101879.25;;;34.86;23.20
48968;BME280;46511;53.148;8.204;2023-06-14T13:02:16;101867.53;;;36.22;22.88
48968;BME280;46511;53.148;8.204;2023-06-14T13:04:48;101872.19;;;35.60;22.67
48968;BME280;46511;53.148;8.204;2023-06-14T13:07:20;101864.16;;;37.29;22.31
48968;BME280;46511;53.148;8.204;2023-06-14T13:09:51;101860.00;;;37.85;21.52
48968;BME280;46511;53.148;8.204;2023-06-14T13:12:22;101868.03;;;38.73;21.52
48968;BME280;46511;53.148;8.204;2023-06-14T13:14:55;101869.88;;;34.56;24.51
48968;BME280;46511;53.148;8.204;2023-06-14T13:17:26;101884.03;;;30.99;27.10
48968;BME280;46511;53.148;8.204;2023-06-14T13:19:57;101882.94;;;29.61;29.65